Карточка аэропорта UAKK

Внимание!
Информация на этой странице в стадии наполнения.
Если вы не увидели какой-то информации, или заметили неточность - пожалуйста сообщите нам!
Спасибо!
Команда RU-STAFF
Название аэропортаКараганда
Название аэропорта (англ.)Karaganda
Превышение1768 ft. (538.9 m.)
Координаты49°40.302', 73°20.118'
Высота перехода10000
Эшелон переходаby ATC
Коды ответчика0630-0637, 7220-7227
Зона ОрВДНур-Султан РПИ (UACN)
Данные METARUAKK 011730Z 06003MPS 9999 BKN025 M09/M10 Q1022 NOSIG RMK QFE719/0959
Проноз погоды (TAF)UAKK 011700Z 0118/0218 08004MPS 3100 BR BKN011 BKN030 TXM05/0209Z TNM16/0201Z TEMPO 0118/0204 VRB02MPS 0300 FZFG VV001 BECMG 0204/0206 9999 NSW SCT011
NOTAMshow/hide NOTAM
AWOS   TABLE

Информация о ВПП

ВПП Длина ВПП (м.) Покрытие Курс ВПП Частота ILS
053601Железобетон50109.9
233601Железобетон230111.7

Диспетчерские позиции




Спутниковое изображение